Time;durP1;ratioP1;P1;durP2;ratioP2;P2;SDS_P1;SDS_P2;PMS_P1;PMS_P2;Temp;Humidity;BMP_temperature;BMP_pressure;BME280_temperature;BME280_humidity;BME280_pressure;Samples;Min_cycle;Max_cycle;Signal;HPM_P1;HPM_P2
2023/08/24 00:00:50;;;;;;;11.77;8.27;;;;;;;19.18;100.00;94205.72;5064137;28;20053;-63
2023/08/24 00:03:16;;;;;;;10.60;8.20;;;;;;;19.32;100.00;94207.09;5050348;28;20041;-64
2023/08/24 00:05:43;;;;;;;11.82;9.55;;;;;;;19.38;100.00;94202.44;5066166;28;20187;-63
2023/08/24 00:08:11;;;;;;;10.10;8.23;;;;;;;19.37;100.00;94209.25;5067912;28;20043;-63
2023/08/24 00:10:38;;;;;;;10.02;8.30;;;;;;;19.41;100.00;94201.50;5067450;28;20046;-63
2023/08/24 00:13:05;;;;;;;9.75;7.90;;;;;;;19.42;100.00;94207.84;5057545;28;20041;-63
2023/08/24 00:15:32;;;;;;;10.30;8.53;;;;;;;19.34;100.00;94208.16;5069184;28;20075;-63
2023/08/24 00:17:58;;;;;;;11.18;8.70;;;;;;;19.28;100.00;94200.91;5068912;28;20040;-61
2023/08/24 00:20:27;;;;;;;13.25;9.15;;;;;;;19.25;100.00;94210.94;5069149;28;20052;-63
2023/08/24 00:22:53;;;;;;;11.05;8.60;;;;;;;19.28;100.00;94204.47;5067949;28;20098;-64
2023/08/24 00:25:20;;;;;;;11.65;8.32;;;;;;;19.31;100.00;94205.53;5068845;28;20050;-63
2023/08/24 00:27:47;;;;;;;13.23;8.83;;;;;;;19.34;100.00;94210.94;5067789;28;20048;-63
2023/08/24 00:30:15;;;;;;;10.82;8.73;;;;;;;19.33;100.00;94205.84;5068685;28;20041;-63
2023/08/24 00:32:41;;;;;;;12.60;8.48;;;;;;;19.27;100.00;94202.91;5069065;28;20041;-63
2023/08/24 00:35:10;;;;;;;11.10;8.95;;;;;;;19.30;100.00;94195.66;5055116;28;20071;-63
2023/08/24 00:37:38;;;;;;;11.93;8.60;;;;;;;19.24;100.00;94195.50;5061550;28;20044;-63
2023/08/24 00:40:09;;;;;;;12.30;8.37;;;;;;;19.22;100.00;94189.63;5068455;28;20040;-63
2023/08/24 00:42:40;;;;;;;13.45;8.73;;;;;;;19.22;100.00;94178.50;5056883;28;20090;-63
2023/08/24 00:45:09;;;;;;;12.48;8.75;;;;;;;19.16;100.00;94180.38;5068264;28;20044;-63
2023/08/24 00:47:38;;;;;;;13.18;8.80;;;;;;;19.14;100.00;94172.47;5068902;28;20101;-65
2023/08/24 00:50:07;;;;;;;11.57;8.52;;;;;;;19.10;100.00;94179.44;5055048;28;20053;-63
2023/08/24 00:52:37;;;;;;;12.67;8.50;;;;;;;19.11;100.00;94180.97;5068873;28;20037;-63
2023/08/24 00:55:04;;;;;;;10.43;7.82;;;;;;;18.84;100.00;94171.41;5067890;28;20040;-63
2023/08/24 00:57:32;;;;;;;10.70;8.40;;;;;;;18.83;100.00;94175.41;5068733;28;20067;-63
2023/08/24 01:00:00;;;;;;;10.50;8.13;;;;;;;18.81;100.00;94182.69;5066950;28;20042;-62
2023/08/24 01:02:27;;;;;;;11.27;8.30;;;;;;;18.83;100.00;94169.09;5050509;28;20325;-64
2023/08/24 01:04:54;;;;;;;10.83;8.53;;;;;;;18.80;100.00;94175.59;5057805;28;20048;-63
2023/08/24 01:07:21;;;;;;;11.95;8.40;;;;;;;18.84;100.00;94171.41;5066667;28;20044;-63
2023/08/24 01:09:48;;;;;;;10.80;8.57;;;;;;;18.84;100.00;94165.84;5068292;28;20036;-64
2023/08/24 01:12:31;;;;;;;12.75;8.43;;;;;;;18.87;100.00;94169.69;5053301;28;20051;-63
2023/08/24 01:15:14;;;;;;;11.30;8.80;;;;;;;18.72;100.00;94169.53;5057713;28;20036;-63
2023/08/24 01:17:43;;;;;;;11.33;8.87;;;;;;;18.77;100.00;94172.47;5050048;28;20753;-64
2023/08/24 01:20:11;;;;;;;10.93;8.65;;;;;;;18.71;100.00;94162.41;5057702;28;20059;-63
2023/08/24 01:22:53;;;;;;;12.30;9.13;;;;;;;18.65;100.00;94169.81;5067703;28;20043;-64
2023/08/24 01:25:26;;;;;;;10.93;9.02;;;;;;;18.63;100.00;94161.16;5066543;28;20046;-63
2023/08/24 01:27:54;;;;;;;11.20;8.85;;;;;;;18.67;100.00;94159.81;5039737;28;20037;-63
2023/08/24 01:30:21;;;;;;;10.50;8.77;;;;;;;18.69;100.00;94150.97;5048048;28;20389;-63
2023/08/24 01:32:49;;;;;;;11.32;8.80;;;;;;;18.55;100.00;94146.78;5041504;28;20047;-63
2023/08/24 01:35:15;;;;;;;11.45;9.13;;;;;;;18.43;100.00;94148.50;5047391;28;20044;-63
2023/08/24 01:37:42;;;;;;;11.38;9.55;;;;;;;18.46;100.00;94138.47;5048095;28;20041;-63
2023/08/24 01:40:20;;;;;;;13.00;9.35;;;;;;;18.45;100.00;94131.34;5047780;28;20049;-63
2023/08/24 01:43:05;;;;;;;11.40;9.10;;;;;;;18.42;100.00;94141.38;5048057;28;20037;-63
2023/08/24 01:45:32;;;;;;;13.65;9.30;;;;;;;18.46;100.00;94141.25;5047268;28;20047;-66
2023/08/24 01:48:03;;;;;;;11.30;9.05;;;;;;;18.38;100.00;94137.22;5046592;28;20055;-62
2023/08/24 01:50:31;;;;;;;11.15;9.05;;;;;;;18.36;100.00;94137.69;5063831;28;20486;-63
2023/08/24 01:52:58;;;;;;;12.23;9.38;;;;;;;18.24;100.00;94131.00;5046447;28;20045;-63
2023/08/24 01:55:25;;;;;;;12.17;9.33;;;;;;;18.13;100.00;94137.03;5067205;28;20679;-64
2023/08/24 01:57:52;;;;;;;12.13;9.23;;;;;;;18.21;100.00;94123.63;5068081;28;20466;-63
2023/08/24 02:00:19;;;;;;;11.30;9.13;;;;;;;18.29;100.00;94113.75;5065392;28;20060;-63
2023/08/24 02:02:46;;;;;;;11.85;9.02;;;;;;;18.35;100.00;94116.66;5063012;28;20043;-63
2023/08/24 02:05:13;;;;;;;11.32;8.88;;;;;;;18.30;100.00;94103.41;5057951;28;20513;-63
2023/08/24 02:07:42;;;;;;;13.13;9.47;;;;;;;18.38;100.00;94115.75;5067650;28;20039;-63
2023/08/24 02:10:09;;;;;;;11.80;8.75;;;;;;;18.40;100.00;94104.19;5067575;28;20051;-63
2023/08/24 02:12:36;;;;;;;13.65;9.30;;;;;;;18.39;100.00;94108.19;5050335;28;20072;-63
2023/08/24 02:15:03;;;;;;;10.43;9.05;;;;;;;18.20;100.00;94105.41;5058844;28;20051;-63
2023/08/24 02:17:30;;;;;;;14.25;9.52;;;;;;;18.23;100.00;94103.69;5067399;28;20037;-63
2023/08/24 02:19:57;;;;;;;11.93;9.10;;;;;;;18.21;100.00;94095.84;5067416;28;20095;-63
2023/08/24 02:22:23;;;;;;;13.02;9.40;;;;;;;18.24;100.00;94097.69;5067111;28;20049;-65
2023/08/24 02:24:51;;;;;;;15.00;9.20;;;;;;;18.24;100.00;94096.91;5067366;28;20048;-63
2023/08/24 02:27:17;;;;;;;17.42;12.32;;;;;;;18.18;100.00;94088.41;5065917;28;20070;-63
2023/08/24 02:29:44;;;;;;;16.05;11.40;;;;;;;18.14;100.00;94091.34;5067640;28;20080;-63
2023/08/24 02:32:11;;;;;;;12.60;9.70;;;;;;;18.14;100.00;94087.78;5053394;28;20186;-63
2023/08/24 02:34:38;;;;;;;12.93;9.00;;;;;;;18.15;100.00;94081.78;5068456;28;20056;-63
2023/08/24 02:37:06;;;;;;;13.70;9.63;;;;;;;18.16;100.00;94083.31;5070661;28;20044;-63
2023/08/24 02:39:33;;;;;;;12.35;9.27;;;;;;;18.17;100.00;94081.34;5071142;28;20048;-63
2023/08/24 02:41:59;;;;;;;12.02;9.18;;;;;;;18.02;100.00;94092.25;5064009;28;20374;-63
2023/08/24 02:44:26;;;;;;;11.67;8.83;;;;;;;17.85;100.00;94088.97;5064626;28;20051;-63
2023/08/24 02:46:54;;;;;;;12.93;9.73;;;;;;;17.59;100.00;94088.41;5071028;28;20116;-63
2023/08/24 02:49:20;;;;;;;13.52;9.60;;;;;;;17.66;100.00;94079.00;5070598;28;20040;-63
2023/08/24 02:51:47;;;;;;;12.98;9.77;;;;;;;17.77;100.00;94082.91;5070839;28;20040;-63
2023/08/24 02:54:14;;;;;;;12.20;9.05;;;;;;;17.80;100.00;94083.22;5070320;28;20040;-63
2023/08/24 02:56:40;;;;;;;13.03;9.70;;;;;;;17.81;100.00;94077.22;5070450;28;20032;-63
2023/08/24 02:59:07;;;;;;;11.40;9.05;;;;;;;17.86;100.00;94078.63;5070724;28;20041;-63
2023/08/24 03:01:38;;;;;;;12.23;9.60;;;;;;;17.89;100.00;94078.50;5059469;28;20040;-63
2023/08/24 03:04:05;;;;;;;12.48;8.90;;;;;;;17.95;100.00;94081.44;5053346;28;20054;-63
2023/08/24 03:06:31;;;;;;;11.45;9.07;;;;;;;17.93;100.00;94081.91;5071025;28;20041;-63
2023/08/24 03:09:01;;;;;;;12.27;9.43;;;;;;;17.85;100.00;94074.31;5070463;28;20244;-63
2023/08/24 03:11:27;;;;;;;11.70;9.30;;;;;;;17.91;100.00;94073.25;5049217;28;20497;-63
2023/08/24 03:13:54;;;;;;;12.32;9.77;;;;;;;17.91;100.00;94075.25;5044894;28;20040;-63
2023/08/24 03:16:21;;;;;;;12.60;9.43;;;;;;;17.86;100.00;94078.63;5068702;28;20040;-63
2023/08/24 03:18:49;;;;;;;11.80;9.50;;;;;;;17.87;100.00;94074.63;5070265;28;20049;-63
2023/08/24 03:21:16;;;;;;;12.73;9.37;;;;;;;17.96;100.00;94078.19;5069683;28;20059;-63
2023/08/24 03:23:43;;;;;;;12.02;9.57;;;;;;;17.96;100.00;94075.41;5070068;28;20051;-63
2023/08/24 03:26:09;;;;;;;12.27;9.70;;;;;;;18.05;100.00;94071.09;5069844;28;20040;-63
2023/08/24 03:28:36;;;;;;;12.35;9.25;;;;;;;18.07;100.00;94077.75;5050764;28;20050;-63
2023/08/24 03:31:03;;;;;;;13.20;9.25;;;;;;;18.14;100.00;94065.56;5045424;28;20041;-63
2023/08/24 03:33:30;;;;;;;14.67;9.80;;;;;;;17.99;100.00;94065.41;5061698;28;20105;-63
2023/08/24 03:35:57;;;;;;;11.98;9.20;;;;;;;17.86;100.00;94062.75;5069995;28;20401;-63
2023/08/24 03:38:24;;;;;;;11.73;9.40;;;;;;;17.90;100.00;94055.03;5069457;28;20040;-63
2023/08/24 03:40:51;;;;;;;11.30;9.38;;;;;;;17.85;100.00;94060.41;5068664;28;20050;-63
2023/08/24 03:43:17;;;;;;;12.25;8.95;;;;;;;17.92;100.00;94062.91;5050764;28;20045;-63
2023/08/24 03:45:44;;;;;;;11.30;9.30;;;;;;;17.96;100.00;94055.22;5049877;28;20059;-63
2023/08/24 03:48:11;;;;;;;12.23;9.07;;;;;;;17.98;100.00;94051.97;5052103;28;20052;-63
2023/08/24 03:50:38;;;;;;;13.00;9.27;;;;;;;18.04;100.00;94052.91;5069911;28;20059;-63
2023/08/24 03:53:06;;;;;;;12.95;9.52;;;;;;;17.93;100.00;94042.25;5069140;28;20055;-63
2023/08/24 03:55:33;;;;;;;11.75;9.02;;;;;;;17.98;100.00;94044.41;5061176;28;20048;-63
2023/08/24 03:57:59;;;;;;;11.90;9.30;;;;;;;17.82;100.00;94039.88;5049260;28;20393;-62
2023/08/24 04:00:26;;;;;;;12.35;9.50;;;;;;;17.87;100.00;94036.53;5049880;28;21585;-63
2023/08/24 04:02:53;;;;;;;11.95;9.77;;;;;;;17.96;100.00;94044.09;5033821;28;20063;-63
2023/08/24 04:05:20;;;;;;;12.35;9.63;;;;;;;18.01;100.00;94045.50;5046881;28;20482;-63
2023/08/24 04:07:47;;;;;;;22.40;10.13;;;;;;;17.99;100.00;94050.72;5064300;28;20477;-63
2023/08/24 04:10:14;;;;;;;11.70;9.30;;;;;;;18.00;100.00;94050.28;5069193;28;20048;-63
2023/08/24 04:12:41;;;;;;;14.35;10.02;;;;;;;17.81;100.00;94038.34;5055926;28;20036;-63
2023/08/24 04:15:09;;;;;;;13.88;10.10;;;;;;;17.59;100.00;94044.00;5068375;28;20040;-63
2023/08/24 04:17:35;;;;;;;12.77;10.00;;;;;;;17.56;100.00;94034.56;5068919;28;20501;-63
2023/08/24 04:20:04;;;;;;;12.38;9.85;;;;;;;17.69;100.00;94044.81;5068391;28;20037;-63
2023/08/24 04:22:30;;;;;;;14.47;9.93;;;;;;;17.78;100.00;94048.34;5068776;28;20058;-63
2023/08/24 04:24:57;;;;;;;12.00;10.10;;;;;;;17.73;100.00;94050.97;5067684;28;20397;-63
2023/08/24 04:27:24;;;;;;;13.18;10.25;;;;;;;17.76;100.00;94052.81;5067809;28;20588;-63
2023/08/24 04:29:50;;;;;;;12.38;10.02;;;;;;;17.48;100.00;94054.75;5067769;28;20037;-63
2023/08/24 04:32:17;;;;;;;14.32;10.30;;;;;;;17.52;100.00;94052.59;5055413;28;20053;-63
2023/08/24 04:34:44;;;;;;;13.33;10.27;;;;;;;17.64;100.00;94048.94;5068631;28;20040;-63
2023/08/24 04:37:11;;;;;;;12.32;10.00;;;;;;;17.61;100.00;94047.09;5068198;28;20044;-63
2023/08/24 04:39:37;;;;;;;12.50;10.35;;;;;;;17.63;100.00;94054.97;5068561;28;20130;-63
2023/08/24 04:42:05;;;;;;;11.75;9.23;;;;;;;17.68;100.00;94051.56;5046524;28;20041;-63
2023/08/24 04:44:32;;;;;;;11.73;9.27;;;;;;;17.77;100.00;94051.59;5060277;28;20141;-63
2023/08/24 04:46:59;;;;;;;13.53;9.67;;;;;;;17.86;100.00;94051.63;5068454;28;20051;-61
2023/08/24 04:49:25;;;;;;;12.32;9.70;;;;;;;17.77;100.00;94041.28;5068816;28;20517;-64
2023/08/24 04:51:52;;;;;;;13.77;10.57;;;;;;;17.84;100.00;94048.56;5068666;28;20047;-63
2023/08/24 04:54:19;;;;;;;12.30;9.35;;;;;;;17.82;100.00;94039.13;5056078;28;20075;-63
2023/08/24 04:56:46;;;;;;;13.55;9.88;;;;;;;17.64;100.00;94032.28;5064496;28;20439;-63
2023/08/24 04:59:12;;;;;;;14.00;9.93;;;;;;;17.64;100.00;94034.28;5066860;28;20048;-63
2023/08/24 05:01:39;;;;;;;14.88;10.18;;;;;;;17.88;100.00;94035.28;5068449;28;20493;-64
2023/08/24 05:04:06;;;;;;;12.57;10.00;;;;;;;18.23;100.00;94037.03;5066815;28;20047;-63
2023/08/24 05:06:33;;;;;;;11.98;9.75;;;;;;;18.52;100.00;94022.66;5050623;28;20056;-63
2023/08/24 05:08:59;;;;;;;13.10;9.23;;;;;;;18.68;100.00;94025.13;5067691;28;20040;-63
2023/08/24 05:11:31;;;;;;;12.50;9.27;;;;;;;18.76;100.00;94018.00;5068461;28;20032;-63
2023/08/24 05:13:57;;;;;;;12.70;9.77;;;;;;;18.63;100.00;94013.84;5067978;28;20051;-63
2023/08/24 05:16:24;;;;;;;14.20;9.73;;;;;;;18.76;100.00;94014.44;5067166;28;20576;-63
2023/08/24 05:18:51;;;;;;;11.63;9.63;;;;;;;18.90;100.00;94029.75;5068059;28;20049;-63
2023/08/24 05:21:18;;;;;;;13.07;9.15;;;;;;;19.07;100.00;94021.81;5068037;28;20101;-63
2023/08/24 05:23:44;;;;;;;12.47;8.73;;;;;;;19.14;100.00;94016.69;5066645;28;20043;-64
2023/08/24 05:26:11;;;;;;;13.02;9.05;;;;;;;19.03;100.00;94019.19;5066324;28;20428;-63
2023/08/24 05:28:38;;;;;;;12.77;9.15;;;;;;;19.00;100.00;94020.13;5068461;28;20341;-63
2023/08/24 05:31:04;;;;;;;11.85;9.45;;;;;;;18.85;100.00;94010.91;5067492;28;20046;-63
2023/08/24 05:33:33;;;;;;;13.43;9.68;;;;;;;19.08;100.00;94015.78;5066488;28;20045;-64
2023/08/24 05:36:00;;;;;;;13.03;9.23;;;;;;;19.18;100.00;94016.53;5067843;28;20036;-64
2023/08/24 05:38:26;;;;;;;13.55;9.93;;;;;;;19.13;100.00;94011.59;5066702;28;20158;-64
2023/08/24 05:40:53;;;;;;;13.50;9.13;;;;;;;19.39;100.00;94013.97;5066438;28;20409;-64
2023/08/24 05:43:20;;;;;;;14.10;9.57;;;;;;;19.44;100.00;94005.00;5067846;28;20043;-64
2023/08/24 05:45:48;;;;;;;12.85;9.80;;;;;;;19.28;100.00;94015.25;5066365;28;20063;-64
2023/08/24 05:48:15;;;;;;;13.87;9.30;;;;;;;19.51;100.00;94012.97;5067639;28;20058;-64
2023/08/24 05:50:43;;;;;;;13.13;9.77;;;;;;;19.47;100.00;94002.00;5067919;28;20045;-64
2023/08/24 05:53:10;;;;;;;10.82;9.57;;;;;;;19.64;100.00;94002.41;5067311;28;20500;-64
2023/08/24 05:55:38;;;;;;;13.07;9.00;;;;;;;19.95;100.00;94004.84;5068175;28;20040;-64
2023/08/24 05:58:05;;;;;;;12.50;9.10;;;;;;;20.45;100.00;94006.34;5067403;28;20512;-64
2023/08/24 06:00:31;;;;;;;14.47;8.77;;;;;;;20.60;100.00;94000.81;5064364;28;20045;-64
2023/08/24 06:02:58;;;;;;;10.73;8.55;;;;;;;21.04;100.00;94000.81;5031447;28;20053;-64
2023/08/24 06:05:26;;;;;;;12.30;9.02;;;;;;;21.58;100.00;94003.47;5046730;28;20861;-64
2023/08/24 06:07:53;;;;;;;12.68;8.73;;;;;;;21.52;100.00;94000.59;5041574;28;20037;-64
2023/08/24 06:10:20;;;;;;;11.18;8.63;;;;;;;21.53;100.00;94007.72;5070156;28;20417;-64
2023/08/24 06:12:46;;;;;;;11.90;9.10;;;;;;;21.39;100.00;94005.72;5071987;28;20048;-64
2023/08/24 06:15:13;;;;;;;11.23;8.55;;;;;;;21.73;100.00;94001.41;5071450;28;20044;-64
2023/08/24 06:17:41;;;;;;;11.40;8.45;;;;;;;22.09;100.00;93999.34;5070089;28;20473;-65
2023/08/24 06:20:11;;;;;;;14.38;8.45;;;;;;;22.44;100.00;94004.09;5069733;28;20105;-64
2023/08/24 06:22:38;;;;;;;10.50;8.15;;;;;;;22.60;100.00;94002.00;5071204;28;20052;-64
2023/08/24 06:25:05;;;;;;;11.47;8.10;;;;;;;22.32;100.00;94006.00;5071317;28;20478;-64
2023/08/24 06:27:32;;;;;;;11.95;8.20;;;;;;;22.04;100.00;94011.22;5070341;28;20067;-64
2023/08/24 06:29:58;;;;;;;12.98;8.40;;;;;;;21.84;100.00;94003.59;5071218;28;20134;-64
2023/08/24 06:32:25;;;;;;;11.25;8.45;;;;;;;22.17;100.00;94002.47;5070790;28;20729;-64
2023/08/24 06:34:52;;;;;;;10.77;8.30;;;;;;;22.07;100.00;93998.28;5071485;28;20045;-64
2023/08/24 06:37:18;;;;;;;11.40;8.53;;;;;;;22.01;100.00;93998.19;5070748;28;20121;-64
2023/08/24 06:39:45;;;;;;;11.13;8.75;;;;;;;22.09;100.00;93999.34;5057758;28;20400;-64
2023/08/24 06:42:12;;;;;;;10.77;8.60;;;;;;;21.70;100.00;93994.00;5070430;28;20558;-64
2023/08/24 06:44:39;;;;;;;10.85;8.93;;;;;;;21.33;100.00;94000.03;5071249;28;20067;-64
2023/08/24 06:47:05;;;;;;;15.38;9.23;;;;;;;21.63;100.00;94000.00;5070036;28;20044;-64
2023/08/24 06:49:32;;;;;;;13.00;9.10;;;;;;;21.85;100.00;93990.38;5070666;28;20046;-64
2023/08/24 06:51:59;;;;;;;12.73;8.60;;;;;;;21.83;100.00;93996.47;5070665;28;20401;-63
2023/08/24 06:54:26;;;;;;;11.35;8.75;;;;;;;22.15;100.00;93991.00;5069377;28;20043;-64
2023/08/24 06:56:54;;;;;;;11.45;8.15;;;;;;;22.41;100.00;93982.69;5069610;28;20040;-64
2023/08/24 06:59:21;;;;;;;12.70;8.57;;;;;;;22.27;100.00;93991.94;5070621;28;20098;-64
2023/08/24 07:01:48;;;;;;;11.53;7.83;;;;;;;22.04;100.00;93996.47;5053148;28;20436;-64
2023/08/24 07:04:15;;;;;;;11.10;8.00;;;;;;;22.18;100.00;93992.84;5032590;28;20042;-64
2023/08/24 07:06:43;;;;;;;10.90;8.05;;;;;;;22.72;100.00;94003.66;5050836;28;20044;-64
2023/08/24 07:09:10;;;;;;;12.20;7.45;;;;;;;23.15;100.00;94006.59;5049964;28;20045;-64
2023/08/24 07:11:36;;;;;;;9.60;8.00;;;;;;;23.09;100.00;94008.59;5050878;28;20036;-64
2023/08/24 07:14:04;;;;;;;10.13;8.00;;;;;;;23.09;100.00;94014.19;5044691;28;20041;-64
2023/08/24 07:16:30;;;;;;;11.05;8.13;;;;;;;23.60;100.00;94014.59;5070344;28;20485;-64
2023/08/24 07:18:57;;;;;;;12.57;7.82;;;;;;;24.12;100.00;94003.97;5070033;28;20047;-64
2023/08/24 07:21:24;;;;;;;10.73;7.60;;;;;;;24.86;100.00;94001.44;5069233;28;20161;-65
2023/08/24 07:23:51;;;;;;;12.02;8.45;;;;;;;24.74;100.00;94006.25;5070346;28;20044;-65
2023/08/24 07:26:17;;;;;;;10.23;7.53;;;;;;;25.14;100.00;94009.91;5066056;28;20049;-66
2023/08/24 07:28:44;;;;;;;10.45;8.00;;;;;;;25.79;100.00;94005.31;5050517;28;20033;-64
2023/08/24 07:31:11;;;;;;;10.60;7.32;;;;;;;27.66;91.90;94001.06;5053646;28;20037;-64
2023/08/24 07:33:43;;;;;;;9.48;6.90;;;;;;;30.26;77.68;93994.72;5070597;28;20116;-64
2023/08/24 07:36:10;;;;;;;9.80;6.30;;;;;;;32.20;68.72;93994.22;5069459;28;20040;-64
2023/08/24 07:38:37;;;;;;;10.17;6.60;;;;;;;32.62;60.87;93994.13;5070045;28;20345;-64
2023/08/24 07:41:04;;;;;;;12.07;7.00;;;;;;;32.84;61.09;93992.72;5069515;28;20478;-64
2023/08/24 07:43:30;;;;;;;8.02;6.18;;;;;;;35.12;52.25;93993.91;5069883;28;20037;-65
2023/08/24 07:45:59;;;;;;;7.90;5.90;;;;;;;36.44;47.43;93988.06;5057998;28;20550;-65
2023/08/24 07:48:26;;;;;;;9.88;6.20;;;;;;;35.96;45.36;93995.53;5066926;28;20644;-64
2023/08/24 07:50:52;;;;;;;7.63;6.17;;;;;;;36.09;43.46;93996.56;5070100;28;20036;-65
2023/08/24 07:53:19;;;;;;;8.45;6.25;;;;;;;34.02;47.82;93991.06;5069079;28;20048;-64
2023/08/24 07:55:46;;;;;;;9.00;6.38;;;;;;;33.98;48.29;93992.78;5070162;28;20504;-64
2023/08/24 07:58:13;;;;;;;7.97;6.50;;;;;;;32.99;51.25;93992.00;5068370;28;20032;-64
2023/08/24 08:00:40;;;;;;;9.52;6.18;;;;;;;32.33;54.00;93993.34;5069782;28;20067;-64
2023/08/24 08:03:07;;;;;;;10.93;7.10;;;;;;;31.67;57.13;93980.34;5069041;28;20091;-66
2023/08/24 08:05:34;;;;;;;11.73;6.72;;;;;;;33.53;50.57;93997.88;5069829;28;20066;-64
2023/08/24 08:08:01;;;;;;;8.32;6.30;;;;;;;33.14;52.42;93996.25;5068556;28;20066;-64
2023/08/24 08:10:27;;;;;;;9.70;6.53;;;;;;;31.19;59.04;93993.84;5069363;28;20060;-64
2023/08/24 08:12:54;;;;;;;9.60;6.57;;;;;;;31.81;58.78;93987.47;5062581;28;20043;-64
2023/08/24 08:15:21;;;;;;;9.27;6.73;;;;;;;32.59;56.61;93994.47;5060927;28;20048;-64
2023/08/24 08:17:48;;;;;;;9.18;6.65;;;;;;;34.48;50.16;93993.13;5069214;28;20040;-64
2023/08/24 08:20:16;;;;;;;10.23;6.40;;;;;;;35.27;47.82;93981.66;5068550;28;20044;-64
2023/08/24 08:22:42;;;;;;;10.07;6.50;;;;;;;35.70;45.50;93984.66;5069144;28;20054;-64
2023/08/24 08:25:09;;;;;;;8.63;5.95;;;;;;;35.82;45.28;93987.81;5068813;28;20044;-64
2023/08/24 08:27:36;;;;;;;8.30;6.60;;;;;;;34.24;49.07;93974.56;5067519;28;20048;-64
2023/08/24 08:30:04;;;;;;;9.27;6.55;;;;;;;33.99;49.42;93969.44;5067198;28;20036;-64
2023/08/24 08:32:31;;;;;;;9.85;6.78;;;;;;;36.92;43.64;93973.47;5067810;28;20523;-64
2023/08/24 08:35:00;;;;;;;13.93;6.35;;;;;;;38.53;38.36;93973.22;5068449;28;20052;-64
2023/08/24 08:37:27;;;;;;;8.20;6.25;;;;;;;39.37;37.78;93975.78;5068536;28;20066;-64
2023/08/24 08:39:54;;;;;;;10.10;6.47;;;;;;;40.16;34.60;93971.31;5059420;28;20036;-64
2023/08/24 08:42:21;;;;;;;8.95;5.88;;;;;;;40.95;33.64;93978.09;5051432;28;20060;-64
2023/08/24 08:44:49;;;;;;;8.60;5.60;;;;;;;40.45;34.40;93962.53;5068956;28;20517;-64
2023/08/24 08:47:20;;;;;;;8.00;5.80;;;;;;;39.05;36.72;93972.78;5067948;28;20057;-64
2023/08/24 08:49:48;;;;;;;9.55;6.10;;;;;;;40.42;34.34;93969.50;5068810;28;20033;-65
2023/08/24 08:52:15;;;;;;;12.27;6.07;;;;;;;40.51;33.59;93969.44;5067843;28;20063;-64
2023/08/24 08:54:42;;;;;;;9.70;6.05;;;;;;;40.07;34.94;93970.75;5067237;28;20052;-64
2023/08/24 08:57:09;;;;;;;8.57;6.00;;;;;;;38.81;36.48;93973.84;5067639;28;20481;-64
2023/08/24 08:59:37;;;;;;;10.13;5.97;;;;;;;38.40;37.72;93973.63;5067305;28;20079;-64
2023/08/24 09:02:04;;;;;;;9.02;6.22;;;;;;;38.03;38.07;93965.81;5053971;28;20048;-63
2023/08/24 09:04:32;;;;;;;9.43;6.40;;;;;;;37.95;37.29;93970.91;5031001;28;20049;-64
2023/08/24 09:07:03;;;;;;;9.60;6.60;;;;;;;37.33;38.53;93963.22;5048635;28;20041;-64
2023/08/24 09:09:30;;;;;;;9.75;6.68;;;;;;;34.97;43.72;93963.38;5054963;28;20740;-66
2023/08/24 09:11:59;;;;;;;7.80;6.35;;;;;;;36.57;41.51;93957.06;5048427;28;20049;-64
2023/08/24 09:14:25;;;;;;;11.52;7.00;;;;;;;36.54;40.24;93961.09;5067703;28;21688;-64
2023/08/24 09:16:52;;;;;;;11.03;6.70;;;;;;;38.23;37.92;93949.44;5066547;28;20036;-64
2023/08/24 09:19:28;;;;;;;9.55;6.40;;;;;;;37.97;37.70;93954.66;5067493;28;20117;-64
2023/08/24 09:21:57;;;;;;;9.00;6.20;;;;;;;40.15;35.20;93947.56;5053809;28;20052;-65
2023/08/24 09:24:35;;;;;;;7.15;5.85;;;;;;;41.63;32.63;93951.56;5058618;28;20484;-65
2023/08/24 09:27:21;;;;;;;11.38;6.40;;;;;;;42.40;30.54;93943.28;5039120;28;20493;-65
2023/08/24 09:29:50;;;;;;;10.37;5.73;;;;;;;40.84;32.32;93939.25;5048514;28;20036;-65
2023/08/24 09:32:31;;;;;;;11.93;5.70;;;;;;;41.12;31.57;93938.22;5047739;28;20053;-65
2023/08/24 09:35:08;;;;;;;10.40;6.10;;;;;;;42.30;30.45;93932.66;5058937;28;20110;-65
2023/08/24 09:37:36;;;;;;;8.40;5.65;;;;;;;40.87;31.01;93917.84;5052280;28;20306;-65
2023/08/24 09:40:07;;;;;;;8.68;5.88;;;;;;;40.40;32.76;93917.63;5067340;28;20043;-65
2023/08/24 09:42:39;;;;;;;9.73;5.70;;;;;;;41.72;30.77;93925.50;5067235;28;20550;-65
2023/08/24 09:45:09;;;;;;;8.35;5.78;;;;;;;41.89;30.75;93918.59;5071466;28;20032;-65
2023/08/24 09:47:36;;;;;;;8.32;5.55;;;;;;;42.12;30.17;93920.03;5072020;28;20117;-65
2023/08/24 09:50:04;;;;;;;7.13;5.60;;;;;;;43.41;28.48;93918.13;5071608;28;20055;-65
2023/08/24 09:52:33;;;;;;;7.45;5.60;;;;;;;41.14;31.32;93914.59;5072417;28;20041;-65
2023/08/24 09:55:07;;;;;;;10.20;5.67;;;;;;;41.47;30.31;93913.78;5071401;28;20045;-64
2023/08/24 09:57:40;;;;;;;11.52;5.70;;;;;;;42.23;29.32;93901.19;5064878;28;20404;-65
2023/08/24 10:00:11;;;;;;;7.90;5.88;;;;;;;40.55;31.12;93894.19;5066511;28;20430;-65
2023/08/24 10:02:50;;;;;;;8.55;5.65;;;;;;;42.07;29.09;93893.06;5049202;28;20041;-65
2023/08/24 10:05:22;;;;;;;10.32;6.38;;;;;;;38.92;33.18;93893.66;5034242;28;20063;-65
2023/08/24 10:07:56;;;;;;;10.37;6.23;;;;;;;41.62;30.50;93892.44;5065924;28;20053;-65
2023/08/24 10:10:29;;;;;;;8.10;6.15;;;;;;;42.41;29.01;93882.09;5065228;28;20040;-65
2023/08/24 10:13:05;;;;;;;10.02;5.88;;;;;;;43.47;27.39;93878.78;5071769;28;20045;-65
2023/08/24 10:15:33;;;;;;;8.60;5.60;;;;;;;43.68;27.02;93874.84;5070636;28;20448;-65
2023/08/24 10:18:01;;;;;;;11.27;5.80;;;;;;;40.66;29.22;93881.97;5071171;28;20040;-64
2023/08/24 10:20:29;;;;;;;9.83;5.47;;;;;;;42.34;28.27;93865.81;5071598;28;20052;-65
2023/08/24 10:22:57;;;;;;;10.02;5.97;;;;;;;42.52;27.71;93871.16;5071255;28;20066;-65
2023/08/24 10:25:24;;;;;;;10.02;5.93;;;;;;;41.26;28.86;93866.44;5068807;28;21380;-65
2023/08/24 10:27:54;;;;;;;9.32;6.20;;;;;;;40.36;30.57;93860.56;5071484;28;20075;-65
2023/08/24 10:30:21;;;;;;;8.13;5.90;;;;;;;42.14;28.99;93858.81;5070858;28;20569;-65
2023/08/24 10:32:49;;;;;;;9.40;6.07;;;;;;;42.74;26.73;93855.13;5071460;28;20538;-65
2023/08/24 10:35:17;;;;;;;10.63;6.20;;;;;;;40.64;29.83;93850.19;5071069;28;20052;-65
2023/08/24 10:37:46;;;;;;;9.75;6.20;;;;;;;40.05;30.40;93852.00;5071337;28;20049;-65
2023/08/24 10:40:13;;;;;;;10.00;6.13;;;;;;;42.11;28.04;93846.44;5070849;28;20400;-65
2023/08/24 10:42:45;;;;;;;11.45;6.30;;;;;;;40.68;30.16;93833.19;5071097;28;20044;-65
2023/08/24 10:45:15;;;;;;;8.93;6.30;;;;;;;41.56;28.92;93829.41;5069481;28;20078;-65
2023/08/24 10:47:46;;;;;;;9.23;6.30;;;;;;;40.72;30.52;93829.84;5070885;28;20036;-65
2023/08/24 10:50:14;;;;;;;12.27;6.50;;;;;;;38.39;33.56;93831.63;5070581;28;20045;-65
2023/08/24 10:52:43;;;;;;;10.73;6.38;;;;;;;39.38;32.32;93819.34;5071193;28;20495;-64
2023/08/24 10:55:31;;;;;;;10.13;6.30;;;;;;;40.06;30.37;93816.88;5058442;28;20051;-65
2023/08/24 10:57:59;;;;;;;10.53;6.40;;;;;;;38.95;31.53;93819.94;5051257;28;20394;-65
2023/08/24 11:00:28;;;;;;;9.75;6.70;;;;;;;37.62;33.79;93819.47;5064562;28;20307;-65
2023/08/24 11:02:56;;;;;;;10.63;7.07;;;;;;;37.78;35.36;93814.97;5071349;28;20394;-64
2023/08/24 11:05:30;;;;;;;9.52;6.40;;;;;;;39.17;33.46;93811.44;5070123;28;20647;-64
2023/08/24 11:07:59;;;;;;;9.98;6.78;;;;;;;37.47;35.21;93814.75;5070770;28;20049;-64
2023/08/24 11:10:46;;;;;;;10.77;6.77;;;;;;;36.82;35.46;93812.47;5069979;28;21626;-64
2023/08/24 11:13:14;;;;;;;13.43;7.10;;;;;;;35.98;37.20;93803.59;5069020;28;20507;-64
2023/08/24 11:15:50;;;;;;;13.57;7.70;;;;;;;36.82;36.49;93807.50;5070568;28;20094;-64
2023/08/24 11:18:29;;;;;;;11.57;7.30;;;;;;;38.17;35.60;93803.59;5069875;28;20067;-64
2023/08/24 11:21:03;;;;;;;11.57;6.75;;;;;;;37.80;35.72;93799.31;5070237;28;20200;-64
2023/08/24 11:23:31;;;;;;;13.20;6.40;;;;;;;37.49;34.87;93794.09;5069641;28;20726;-64
2023/08/24 11:25:59;;;;;;;12.77;6.68;;;;;;;37.21;36.37;93804.88;5070290;28;20039;-64